sensor_id;sensor_type;location;lat;lon;timestamp;pressure;altitude;pressure_sealevel;temperature;humidity
55675;BME280;41562;44.330;23.802;2023-02-12T00:01:25;101240.41;;;-0.34;88.28
55675;BME280;41562;44.330;23.802;2023-02-12T00:03:53;101240.63;;;-0.21;88.51
55675;BME280;41562;44.330;23.802;2023-02-12T00:06:20;101243.56;;;-0.16;87.17
55675;BME280;41562;44.330;23.802;2023-02-12T00:08:49;101239.41;;;-0.33;88.86
55675;BME280;41562;44.330;23.802;2023-02-12T00:11:25;101235.47;;;-0.37;88.68
55675;BME280;41562;44.330;23.802;2023-02-12T00:13:57;101231.41;;;-0.17;87.83
55675;BME280;41562;44.330;23.802;2023-02-12T00:16:29;101218.31;;;-0.03;86.84
55675;BME280;41562;44.330;23.802;2023-02-12T00:18:57;101224.38;;;-0.02;86.48
55675;BME280;41562;44.330;23.802;2023-02-12T00:21:25;101225.22;;;-0.02;86.86
55675;BME280;41562;44.330;23.802;2023-02-12T00:23:52;101210.59;;;-0.04;86.87
55675;BME280;41562;44.330;23.802;2023-02-12T00:26:22;101216.50;;;-0.02;86.26
55675;BME280;41562;44.330;23.802;2023-02-12T00:28:53;101221.53;;;-0.15;87.43
55675;BME280;41562;44.330;23.802;2023-02-12T00:31:23;101221.09;;;-0.04;87.50
55675;BME280;41562;44.330;23.802;2023-02-12T00:33:54;101225.31;;;0.05;86.67
55675;BME280;41562;44.330;23.802;2023-02-12T00:36:27;101216.72;;;0.11;86.10
55675;BME280;41562;44.330;23.802;2023-02-12T00:38:56;101210.53;;;0.04;86.34
55675;BME280;41562;44.330;23.802;2023-02-12T00:41:29;101204.69;;;0.31;85.16
55675;BME280;41562;44.330;23.802;2023-02-12T00:43:56;101196.50;;;0.26;84.39
55675;BME280;41562;44.330;23.802;2023-02-12T00:46:27;101190.78;;;0.23;85.20
55675;BME280;41562;44.330;23.802;2023-02-12T00:48:54;101196.94;;;0.15;85.75
55675;BME280;41562;44.330;23.802;2023-02-12T00:51:22;101217.16;;;0.00;86.90
55675;BME280;41562;44.330;23.802;2023-02-12T00:53:49;101211.19;;;0.06;86.96
55675;BME280;41562;44.330;23.802;2023-02-12T00:56:19;101225.03;;;-0.23;87.29
55675;BME280;41562;44.330;23.802;2023-02-12T00:58:46;101217.63;;;-0.19;88.23
55675;BME280;41562;44.330;23.802;2023-02-12T01:01:13;101214.69;;;-0.02;86.60
55675;BME280;41562;44.330;23.802;2023-02-12T01:03:41;101208.44;;;-0.01;86.50
55675;BME280;41562;44.330;23.802;2023-02-12T01:06:08;101207.16;;;-0.05;86.55
55675;BME280;41562;44.330;23.802;2023-02-12T01:08:35;101211.19;;;-0.17;87.48
55675;BME280;41562;44.330;23.802;2023-02-12T01:11:04;101208.72;;;-0.18;87.31
55675;BME280;41562;44.330;23.802;2023-02-12T01:13:32;101206.53;;;-0.07;87.14
55675;BME280;41562;44.330;23.802;2023-02-12T01:16:05;101212.88;;;-0.01;86.82
55675;BME280;41562;44.330;23.802;2023-02-12T01:18:34;101202.00;;;0.02;87.09
55675;BME280;41562;44.330;23.802;2023-02-12T01:21:08;101195.41;;;0.06;87.37
55675;BME280;41562;44.330;23.802;2023-02-12T01:23:36;101200.41;;;0.16;86.47
55675;BME280;41562;44.330;23.802;2023-02-12T01:26:03;101205.91;;;0.06;87.95
55675;BME280;41562;44.330;23.802;2023-02-12T01:28:31;101206.53;;;-0.07;88.76
55675;BME280;41562;44.330;23.802;2023-02-12T01:30:58;101215.84;;;-0.04;88.44
55675;BME280;41562;44.330;23.802;2023-02-12T01:33:29;101211.47;;;0.11;88.40
55675;BME280;41562;44.330;23.802;2023-02-12T01:35:59;101199.56;;;0.15;87.81
55675;BME280;41562;44.330;23.802;2023-02-12T01:38:26;101205.16;;;-0.03;88.45
55675;BME280;41562;44.330;23.802;2023-02-12T01:41:01;101207.91;;;0.04;88.79
55675;BME280;41562;44.330;23.802;2023-02-12T01:43:28;101195.75;;;0.03;88.59
55675;BME280;41562;44.330;23.802;2023-02-12T01:45:58;101201.00;;;0.03;88.27
55675;BME280;41562;44.330;23.802;2023-02-12T01:48:28;101210.25;;;-0.01;88.85
55675;BME280;41562;44.330;23.802;2023-02-12T01:51:01;101207.72;;;0.06;87.76
55675;BME280;41562;44.330;23.802;2023-02-12T01:53:36;101193.69;;;0.28;86.78
55675;BME280;41562;44.330;23.802;2023-02-12T01:56:07;101205.38;;;0.11;87.45
55675;BME280;41562;44.330;23.802;2023-02-12T01:58:38;101201.38;;;0.15;87.16
55675;BME280;41562;44.330;23.802;2023-02-12T02:01:08;101190.16;;;0.06;87.94
55675;BME280;41562;44.330;23.802;2023-02-12T02:03:41;101193.75;;;0.05;88.48
55675;BME280;41562;44.330;23.802;2023-02-12T02:06:15;101186.38;;;0.00;89.01
55675;BME280;41562;44.330;23.802;2023-02-12T02:08:45;101192.56;;;0.08;88.54
55675;BME280;41562;44.330;23.802;2023-02-12T02:11:13;101195.22;;;0.22;87.94
55675;BME280;41562;44.330;23.802;2023-02-12T02:13:41;101194.25;;;0.23;87.86
55675;BME280;41562;44.330;23.802;2023-02-12T02:16:25;101208.00;;;0.25;87.31
55675;BME280;41562;44.330;23.802;2023-02-12T02:18:57;101209.84;;;0.25;87.54
55675;BME280;41562;44.330;23.802;2023-02-12T02:21:45;101209.66;;;0.26;87.98
55675;BME280;41562;44.330;23.802;2023-02-12T02:24:44;101209.84;;;0.39;86.72
55675;BME280;41562;44.330;23.802;2023-02-12T02:30:37;101206.22;;;0.40;87.31
55675;BME280;41562;44.330;23.802;2023-02-12T02:35:43;101204.50;;;0.48;87.74
55675;BME280;41562;44.330;23.802;2023-02-12T02:43:43;101203.78;;;0.54;87.24
55675;BME280;41562;44.330;23.802;2023-02-12T02:46:19;101209.41;;;0.65;87.49
55675;BME280;41562;44.330;23.802;2023-02-12T02:48:54;101218.84;;;0.60;86.32
55675;BME280;41562;44.330;23.802;2023-02-12T02:51:28;101205.69;;;0.74;92.43
55675;BME280;41562;44.330;23.802;2023-02-12T02:56:28;101212.75;;;0.59;86.55
55675;BME280;41562;44.330;23.802;2023-02-12T02:59:06;101223.47;;;0.43;87.08
55675;BME280;41562;44.330;23.802;2023-02-12T03:01:42;101218.56;;;0.55;89.27
55675;BME280;41562;44.330;23.802;2023-02-12T03:04:28;101226.28;;;0.42;88.66
55675;BME280;41562;44.330;23.802;2023-02-12T03:07:03;101229.53;;;0.44;87.38
55675;BME280;41562;44.330;23.802;2023-02-12T03:12:09;101227.00;;;0.35;86.38
55675;BME280;41562;44.330;23.802;2023-02-12T03:14:43;101241.31;;;0.18;87.61
55675;BME280;41562;44.330;23.802;2023-02-12T03:17:19;101235.66;;;0.21;87.10
55675;BME280;41562;44.330;23.802;2023-02-12T03:19:55;101236.94;;;0.25;87.33
55675;BME280;41562;44.330;23.802;2023-02-12T03:22:28;101235.00;;;0.05;87.96
55675;BME280;41562;44.330;23.802;2023-02-12T03:25:01;101226.59;;;0.09;88.85
55675;BME280;41562;44.330;23.802;2023-02-12T03:27:37;101244.81;;;-0.12;88.06
55675;BME280;41562;44.330;23.802;2023-02-12T03:30:14;101249.78;;;-0.17;88.82
55675;BME280;41562;44.330;23.802;2023-02-12T03:32:57;101247.09;;;-0.09;88.78
55675;BME280;41562;44.330;23.802;2023-02-12T03:35:41;101243.22;;;-0.13;88.71
55675;BME280;41562;44.330;23.802;2023-02-12T03:38:48;101244.19;;;-0.14;89.15
55675;BME280;41562;44.330;23.802;2023-02-12T03:41:39;101253.88;;;-0.15;89.42
55675;BME280;41562;44.330;23.802;2023-02-12T03:44:22;101262.34;;;-0.05;89.53
55675;BME280;41562;44.330;23.802;2023-02-12T03:51:59;101239.19;;;0.14;88.47
55675;BME280;41562;44.330;23.802;2023-02-12T03:54:26;101254.56;;;0.02;88.15
55675;BME280;41562;44.330;23.802;2023-02-12T03:57:00;101252.06;;;0.09;89.10
55675;BME280;41562;44.330;23.802;2023-02-12T03:59:29;101256.88;;;0.05;88.65
55675;BME280;41562;44.330;23.802;2023-02-12T04:01:58;101244.91;;;0.17;89.10
55675;BME280;41562;44.330;23.802;2023-02-12T04:04:25;101261.13;;;0.06;90.00
55675;BME280;41562;44.330;23.802;2023-02-12T04:06:54;101257.59;;;0.14;90.29
55675;BME280;41562;44.330;23.802;2023-02-12T04:09:28;101261.41;;;0.11;89.71
55675;BME280;41562;44.330;23.802;2023-02-12T04:20:48;101240.59;;;0.24;88.33
55675;BME280;41562;44.330;23.802;2023-02-12T04:26:04;101257.47;;;0.45;88.49
55675;BME280;41562;44.330;23.802;2023-02-12T04:36:34;101259.16;;;0.23;88.76
55675;BME280;41562;44.330;23.802;2023-02-12T04:39:17;101260.75;;;0.76;91.71
55675;BME280;41562;44.330;23.802;2023-02-12T04:41:45;101260.66;;;4.76;82.26
55675;BME280;41562;44.330;23.802;2023-02-12T04:44:33;101281.22;;;7.37;66.29
55675;BME280;41562;44.330;23.802;2023-02-12T04:47:00;101282.09;;;4.41;70.64
55675;BME280;41562;44.330;23.802;2023-02-12T04:49:29;101285.84;;;5.11;70.72
55675;BME280;41562;44.330;23.802;2023-02-12T04:51:56;101272.72;;;4.32;72.66
55675;BME280;41562;44.330;23.802;2023-02-12T04:54:24;101284.41;;;3.51;73.39
55675;BME280;41562;44.330;23.802;2023-02-12T04:56:51;101279.63;;;2.51;76.83
55675;BME280;41562;44.330;23.802;2023-02-12T04:59:42;101284.81;;;1.53;80.98
55675;BME280;41562;44.330;23.802;2023-02-12T05:02:09;101286.88;;;1.21;83.69
55675;BME280;41562;44.330;23.802;2023-02-12T05:04:37;101301.88;;;0.92;84.09
55675;BME280;41562;44.330;23.802;2023-02-12T05:07:05;101302.06;;;0.90;84.75
55675;BME280;41562;44.330;23.802;2023-02-12T05:09:33;101308.84;;;1.65;82.16
55675;BME280;41562;44.330;23.802;2023-02-12T05:12:04;101309.97;;;1.19;83.88
55675;BME280;41562;44.330;23.802;2023-02-12T05:14:36;101319.22;;;0.86;86.80
55675;BME280;41562;44.330;23.802;2023-02-12T05:17:04;101319.84;;;0.73;87.52
55675;BME280;41562;44.330;23.802;2023-02-12T05:19:32;101311.09;;;0.58;88.71
55675;BME280;41562;44.330;23.802;2023-02-12T05:22:00;101317.28;;;0.65;89.52
55675;BME280;41562;44.330;23.802;2023-02-12T05:24:30;101318.47;;;0.63;88.97
55675;BME280;41562;44.330;23.802;2023-02-12T05:26:58;101323.28;;;0.89;87.25
55675;BME280;41562;44.330;23.802;2023-02-12T05:29:36;101319.97;;;0.95;87.30
55675;BME280;41562;44.330;23.802;2023-02-12T05:32:04;101326.66;;;0.68;88.49
55675;BME280;41562;44.330;23.802;2023-02-12T05:34:32;101331.97;;;0.60;89.10
55675;BME280;41562;44.330;23.802;2023-02-12T05:37:00;101341.25;;;0.56;88.84
55675;BME280;41562;44.330;23.802;2023-02-12T05:39:27;101349.59;;;0.59;88.71
55675;BME280;41562;44.330;23.802;2023-02-12T05:41:55;101340.91;;;0.73;89.29
55675;BME280;41562;44.330;23.802;2023-02-12T05:44:23;101337.91;;;0.91;87.53
55675;BME280;41562;44.330;23.802;2023-02-12T05:46:53;101351.47;;;0.88;87.42
55675;BME280;41562;44.330;23.802;2023-02-12T05:49:23;101360.75;;;0.76;87.95
55675;BME280;41562;44.330;23.802;2023-02-12T05:51:50;101370.84;;;0.72;89.38
55675;BME280;41562;44.330;23.802;2023-02-12T05:54:18;101372.00;;;0.70;88.72
55675;BME280;41562;44.330;23.802;2023-02-12T05:56:46;101364.97;;;0.85;89.72
55675;BME280;41562;44.330;23.802;2023-02-12T05:59:19;101375.81;;;1.05;89.77
55675;BME280;41562;44.330;23.802;2023-02-12T06:01:48;101382.22;;;1.02;88.36
55675;BME280;41562;44.330;23.802;2023-02-12T06:04:19;101384.16;;;1.23;87.01
55675;BME280;41562;44.330;23.802;2023-02-12T06:06:51;101389.78;;;1.05;87.98
55675;BME280;41562;44.330;23.802;2023-02-12T06:09:20;101383.78;;;1.11;87.55
55675;BME280;41562;44.330;23.802;2023-02-12T06:11:48;101391.53;;;1.13;87.50
55675;BME280;41562;44.330;23.802;2023-02-12T06:14:19;101408.56;;;1.02;88.31
55675;BME280;41562;44.330;23.802;2023-02-12T06:16:49;101408.78;;;1.01;89.13
55675;BME280;41562;44.330;23.802;2023-02-12T06:19:18;101413.13;;;0.94;91.17
55675;BME280;41562;44.330;23.802;2023-02-12T06:21:45;101415.03;;;1.00;91.54
55675;BME280;41562;44.330;23.802;2023-02-12T06:24:15;101414.47;;;1.04;91.89
55675;BME280;41562;44.330;23.802;2023-02-12T06:26:42;101418.38;;;1.08;90.79
55675;BME280;41562;44.330;23.802;2023-02-12T06:29:13;101422.78;;;1.31;89.76
55675;BME280;41562;44.330;23.802;2023-02-12T06:31:41;101423.94;;;1.28;89.14
55675;BME280;41562;44.330;23.802;2023-02-12T06:34:10;101424.69;;;1.37;89.83
55675;BME280;41562;44.330;23.802;2023-02-12T06:36:40;101430.94;;;1.36;89.34
55675;BME280;41562;44.330;23.802;2023-02-12T06:39:08;101424.50;;;1.24;87.69
55675;BME280;41562;44.330;23.802;2023-02-12T06:41:35;101433.94;;;1.18;87.72
55675;BME280;41562;44.330;23.802;2023-02-12T06:44:04;101439.38;;;1.16;88.48
55675;BME280;41562;44.330;23.802;2023-02-12T06:46:31;101445.84;;;1.29;88.49
55675;BME280;41562;44.330;23.802;2023-02-12T06:49:05;101452.75;;;1.30;88.35
55675;BME280;41562;44.330;23.802;2023-02-12T06:51:32;101442.66;;;1.33;88.29
55675;BME280;41562;44.330;23.802;2023-02-12T06:54:00;101444.94;;;1.36;87.19
55675;BME280;41562;44.330;23.802;2023-02-12T06:56:27;101448.41;;;1.37;87.03
55675;BME280;41562;44.330;23.802;2023-02-12T06:58:57;101455.09;;;1.39;87.21
55675;BME280;41562;44.330;23.802;2023-02-12T07:01:26;101456.38;;;1.29;88.66
55675;BME280;41562;44.330;23.802;2023-02-12T07:03:56;101460.31;;;1.33;88.43
55675;BME280;41562;44.330;23.802;2023-02-12T07:06:25;101462.03;;;1.55;87.38
55675;BME280;41562;44.330;23.802;2023-02-12T07:08:56;101465.75;;;1.60;85.44
55675;BME280;41562;44.330;23.802;2023-02-12T07:11:26;101472.13;;;1.66;84.33
55675;BME280;41562;44.330;23.802;2023-02-12T07:13:54;101473.09;;;1.65;84.99
55675;BME280;41562;44.330;23.802;2023-02-12T07:16:22;101480.75;;;1.75;85.04
55675;BME280;41562;44.330;23.802;2023-02-12T07:18:56;101485.94;;;1.83;82.43
55675;BME280;41562;44.330;23.802;2023-02-12T07:21:26;101490.09;;;1.92;82.47
55675;BME280;41562;44.330;23.802;2023-02-12T07:23:54;101495.63;;;2.12;82.65
55675;BME280;41562;44.330;23.802;2023-02-12T07:26:21;101496.16;;;2.22;83.19
55675;BME280;41562;44.330;23.802;2023-02-12T07:28:55;101494.69;;;2.34;82.80
55675;BME280;41562;44.330;23.802;2023-02-12T07:31:25;101484.53;;;2.52;81.97
55675;BME280;41562;44.330;23.802;2023-02-12T07:33:54;101492.13;;;2.62;81.63
55675;BME280;41562;44.330;23.802;2023-02-12T07:36:23;101490.66;;;2.38;83.68
55675;BME280;41562;44.330;23.802;2023-02-12T07:38:53;101499.22;;;2.40;83.35
55675;BME280;41562;44.330;23.802;2023-02-12T07:41:28;101504.84;;;2.37;83.47
55675;BME280;41562;44.330;23.802;2023-02-12T07:44:01;101499.41;;;2.60;82.30
55675;BME280;41562;44.330;23.802;2023-02-12T07:46:50;101509.09;;;2.74;82.22
55675;BME280;41562;44.330;23.802;2023-02-12T07:49:19;101513.72;;;2.65;82.99
55675;BME280;41562;44.330;23.802;2023-02-12T07:51:48;101519.09;;;2.78;85.42
55675;BME280;41562;44.330;23.802;2023-02-12T07:54:21;101526.22;;;2.99;87.53
55675;BME280;41562;44.330;23.802;2023-02-12T07:56:52;101521.00;;;3.06;88.08
55675;BME280;41562;44.330;23.802;2023-02-12T07:59:19;101523.25;;;2.88;84.92
55675;BME280;41562;44.330;23.802;2023-02-12T08:01:48;101536.50;;;2.73;86.42
55675;BME280;41562;44.330;23.802;2023-02-12T08:04:18;101535.41;;;2.82;92.75
55675;BME280;41562;44.330;23.802;2023-02-12T08:06:49;101541.16;;;2.50;87.86
55675;BME280;41562;44.330;23.802;2023-02-12T08:09:19;101543.88;;;2.41;85.85
55675;BME280;41562;44.330;23.802;2023-02-12T08:11:50;101538.75;;;2.19;86.68
55675;BME280;41562;44.330;23.802;2023-02-12T08:14:19;101542.75;;;2.15;87.10
55675;BME280;41562;44.330;23.802;2023-02-12T08:16:48;101537.75;;;2.20;87.94
55675;BME280;41562;44.330;23.802;2023-02-12T08:19:16;101542.03;;;2.06;86.62
55675;BME280;41562;44.330;23.802;2023-02-12T08:21:51;101539.31;;;1.99;86.94
55675;BME280;41562;44.330;23.802;2023-02-12T08:24:19;101543.13;;;1.97;87.84
55675;BME280;41562;44.330;23.802;2023-02-12T08:26:47;101550.69;;;2.15;87.32
55675;BME280;41562;44.330;23.802;2023-02-12T08:29:20;101563.75;;;2.23;87.56
55675;BME280;41562;44.330;23.802;2023-02-12T08:31:50;101564.47;;;2.31;86.96
55675;BME280;41562;44.330;23.802;2023-02-12T08:34:23;101574.47;;;2.51;86.73
55675;BME280;41562;44.330;23.802;2023-02-12T08:36:52;101578.25;;;2.63;86.14
55675;BME280;41562;44.330;23.802;2023-02-12T08:39:21;101573.63;;;2.50;86.97
55675;BME280;41562;44.330;23.802;2023-02-12T08:41:49;101576.91;;;2.52;87.80
55675;BME280;41562;44.330;23.802;2023-02-12T08:44:17;101581.16;;;2.68;87.86
55675;BME280;41562;44.330;23.802;2023-02-12T08:46:48;101580.06;;;2.77;86.14
55675;BME280;41562;44.330;23.802;2023-02-12T08:49:18;101579.59;;;2.73;85.13
55675;BME280;41562;44.330;23.802;2023-02-12T08:51:48;101579.06;;;2.78;89.80
55675;BME280;41562;44.330;23.802;2023-02-12T08:54:21;101583.38;;;2.86;87.03
55675;BME280;41562;44.330;23.802;2023-02-12T08:56:50;101589.41;;;2.79;86.47
55675;BME280;41562;44.330;23.802;2023-02-12T08:59:20;101599.00;;;3.02;86.11
55675;BME280;41562;44.330;23.802;2023-02-12T09:01:51;101608.69;;;2.95;86.49
55675;BME280;41562;44.330;23.802;2023-02-12T09:04:22;101604.41;;;3.15;90.45
55675;BME280;41562;44.330;23.802;2023-02-12T09:06:50;101602.50;;;2.88;84.23
55675;BME280;41562;44.330;23.802;2023-02-12T09:09:18;101610.19;;;2.82;83.21
55675;BME280;41562;44.330;23.802;2023-02-12T09:11:46;101605.31;;;2.86;82.98
55675;BME280;41562;44.330;23.802;2023-02-12T09:14:15;101616.53;;;2.88;83.00
55675;BME280;41562;44.330;23.802;2023-02-12T09:16:43;101616.34;;;2.90;84.60
55675;BME280;41562;44.330;23.802;2023-02-12T09:19:12;101615.59;;;2.96;84.64
55675;BME280;41562;44.330;23.802;2023-02-12T09:21:40;101623.66;;;3.09;84.71
55675;BME280;41562;44.330;23.802;2023-02-12T09:24:08;101629.81;;;2.95;84.92
55675;BME280;41562;44.330;23.802;2023-02-12T09:26:36;101631.59;;;3.09;85.76
55675;BME280;41562;44.330;23.802;2023-02-12T09:29:03;101639.25;;;3.04;85.43
55675;BME280;41562;44.330;23.802;2023-02-12T09:31:34;101647.56;;;3.01;87.72
55675;BME280;41562;44.330;23.802;2023-02-12T09:34:05;101642.53;;;3.06;89.97
55675;BME280;41562;44.330;23.802;2023-02-12T09:36:33;101645.56;;;3.24;87.36
55675;BME280;41562;44.330;23.802;2023-02-12T09:39:01;101648.94;;;3.18;84.42
55675;BME280;41562;44.330;23.802;2023-02-12T09:41:51;101652.13;;;3.28;84.50
55675;BME280;41562;44.330;23.802;2023-02-12T09:44:43;101653.25;;;3.40;89.74
55675;BME280;41562;44.330;23.802;2023-02-12T09:47:22;101653.94;;;3.28;85.14
55675;BME280;41562;44.330;23.802;2023-02-12T09:50:11;101651.91;;;3.30;84.03
55675;BME280;41562;44.330;23.802;2023-02-12T09:52:45;101652.69;;;3.45;84.77
55675;BME280;41562;44.330;23.802;2023-02-12T09:55:23;101662.75;;;3.56;84.20
55675;BME280;41562;44.330;23.802;2023-02-12T09:57:57;101661.44;;;3.67;82.43
55675;BME280;41562;44.330;23.802;2023-02-12T10:00:30;101668.03;;;3.56;81.88
55675;BME280;41562;44.330;23.802;2023-02-12T10:03:12;101667.63;;;3.80;85.67
55675;BME280;41562;44.330;23.802;2023-02-12T10:05:50;101670.50;;;3.79;90.38
55675;BME280;41562;44.330;23.802;2023-02-12T10:11:14;101668.16;;;3.69;81.93
55675;BME280;41562;44.330;23.802;2023-02-12T10:16:47;101681.44;;;3.76;83.47
55675;BME280;41562;44.330;23.802;2023-02-12T10:22:42;101678.44;;;3.57;84.19
55675;BME280;41562;44.330;23.802;2023-02-12T10:25:51;101679.31;;;3.64;85.49
55675;BME280;41562;44.330;23.802;2023-02-12T10:28:38;101677.19;;;3.53;84.36
55675;BME280;41562;44.330;23.802;2023-02-12T10:31:16;101680.94;;;3.44;83.90
55675;BME280;41562;44.330;23.802;2023-02-12T10:33:47;101690.41;;;3.53;84.29
55675;BME280;41562;44.330;23.802;2023-02-12T10:36:49;101681.38;;;3.48;83.86
55675;BME280;41562;44.330;23.802;2023-02-12T10:39:27;101682.84;;;3.50;83.79
55675;BME280;41562;44.330;23.802;2023-02-12T10:42:16;101683.72;;;3.57;82.90
55675;BME280;41562;44.330;23.802;2023-02-12T10:44:45;101683.72;;;3.57;84.76
55675;BME280;41562;44.330;23.802;2023-02-12T10:47:18;101693.28;;;3.37;84.87
55675;BME280;41562;44.330;23.802;2023-02-12T10:49:54;101690.69;;;3.44;84.08
55675;BME280;41562;44.330;23.802;2023-02-12T10:52:43;101691.53;;;3.66;88.55
55675;BME280;41562;44.330;23.802;2023-02-12T10:55:28;101698.94;;;3.77;84.85
55675;BME280;41562;44.330;23.802;2023-02-12T10:57:56;101690.13;;;3.70;83.04
55675;BME280;41562;44.330;23.802;2023-02-12T11:03:28;101692.53;;;3.64;82.76
55675;BME280;41562;44.330;23.802;2023-02-12T11:05:56;101703.75;;;3.67;86.38
55675;BME280;41562;44.330;23.802;2023-02-12T11:08:39;101709.47;;;3.70;83.16
55675;BME280;41562;44.330;23.802;2023-02-12T11:11:15;101713.94;;;3.70;82.85
55675;BME280;41562;44.330;23.802;2023-02-12T11:13:57;101707.53;;;3.79;85.87
55675;BME280;41562;44.330;23.802;2023-02-12T11:16:32;101705.25;;;3.76;82.85
55675;BME280;41562;44.330;23.802;2023-02-12T11:19:04;101703.19;;;3.71;82.39
55675;BME280;41562;44.330;23.802;2023-02-12T11:21:33;101707.59;;;3.85;82.45
55675;BME280;41562;44.330;23.802;2023-02-12T11:24:34;101709.59;;;3.83;82.44
55675;BME280;41562;44.330;23.802;2023-02-12T11:27:20;101708.84;;;3.89;82.54
55675;BME280;41562;44.330;23.802;2023-02-12T11:32:32;101712.72;;;3.93;81.87
55675;BME280;41562;44.330;23.802;2023-02-12T11:35:16;101721.38;;;3.81;82.02
55675;BME280;41562;44.330;23.802;2023-02-12T11:37:45;101717.97;;;3.87;81.38
55675;BME280;41562;44.330;23.802;2023-02-12T11:40:22;101706.44;;;3.94;81.58
55675;BME280;41562;44.330;23.802;2023-02-12T11:43:05;101709.25;;;3.93;80.45
55675;BME280;41562;44.330;23.802;2023-02-12T11:45:40;101708.00;;;3.89;80.63
55675;BME280;41562;44.330;23.802;2023-02-12T11:50:55;101703.66;;;4.02;81.71
55675;BME280;41562;44.330;23.802;2023-02-12T11:53:29;101711.41;;;4.04;81.06
55675;BME280;41562;44.330;23.802;2023-02-12T11:56:02;101712.00;;;4.06;81.34
55675;BME280;41562;44.330;23.802;2023-02-12T11:58:31;101707.34;;;4.08;80.75
55675;BME280;41562;44.330;23.802;2023-02-12T12:09:10;101710.34;;;4.26;80.58
55675;BME280;41562;44.330;23.802;2023-02-12T12:14:22;101704.28;;;4.32;80.90
55675;BME280;41562;44.330;23.802;2023-02-12T12:17:05;101716.09;;;4.36;80.76
55675;BME280;41562;44.330;23.802;2023-02-12T12:20:04;101712.03;;;4.34;81.02
55675;BME280;41562;44.330;23.802;2023-02-12T12:22:42;101705.13;;;4.39;81.52
55675;BME280;41562;44.330;23.802;2023-02-12T12:32:58;101708.63;;;4.81;84.69
55675;BME280;41562;44.330;23.802;2023-02-12T12:35:44;101718.94;;;4.69;78.47
55675;BME280;41562;44.330;23.802;2023-02-12T12:38:48;101714.53;;;4.83;77.66
55675;BME280;41562;44.330;23.802;2023-02-12T12:52:21;101732.72;;;4.86;75.97
55675;BME280;41562;44.330;23.802;2023-02-12T12:55:10;101722.28;;;4.78;78.27
55675;BME280;41562;44.330;23.802;2023-02-12T12:57:51;101719.13;;;4.61;76.83
55675;BME280;41562;44.330;23.802;2023-02-12T13:00:44;101728.81;;;4.48;76.36
55675;BME280;41562;44.330;23.802;2023-02-12T13:14:58;101750.78;;;4.41;78.06
55675;BME280;41562;44.330;23.802;2023-02-12T13:17:52;101747.91;;;4.43;78.94
55675;BME280;41562;44.330;23.802;2023-02-12T13:23:20;101759.44;;;4.57;76.07
55675;BME280;41562;44.330;23.802;2023-02-12T13:26:16;101754.41;;;4.68;74.61
55675;BME280;41562;44.330;23.802;2023-02-12T13:28:48;101749.53;;;4.72;75.12
55675;BME280;41562;44.330;23.802;2023-02-12T13:31:21;101756.94;;;4.83;74.32
55675;BME280;41562;44.330;23.802;2023-02-12T13:34:06;101748.25;;;4.96;73.80
55675;BME280;41562;44.330;23.802;2023-02-12T13:36:37;101746.19;;;4.91;73.22
55675;BME280;41562;44.330;23.802;2023-02-12T13:39:28;101740.94;;;5.04;72.44
55675;BME280;41562;44.330;23.802;2023-02-12T13:53:05;101766.88;;;5.15;71.63
55675;BME280;41562;44.330;23.802;2023-02-12T13:56:00;101777.66;;;5.07;73.56
55675;BME280;41562;44.330;23.802;2023-02-12T14:01:11;101778.06;;;5.04;74.35
55675;BME280;41562;44.330;23.802;2023-02-12T14:03:40;101771.97;;;5.10;73.96
55675;BME280;41562;44.330;23.802;2023-02-12T14:06:16;101772.03;;;5.23;72.97
55675;BME280;41562;44.330;23.802;2023-02-12T14:09:17;101766.38;;;5.46;72.44
55675;BME280;41562;44.330;23.802;2023-02-12T14:11:50;101769.38;;;5.23;72.64
55675;BME280;41562;44.330;23.802;2023-02-12T14:14:28;101769.41;;;5.30;73.64
55675;BME280;41562;44.330;23.802;2023-02-12T14:25:25;101764.06;;;4.82;76.02
55675;BME280;41562;44.330;23.802;2023-02-12T14:27:57;101778.88;;;5.05;75.26
55675;BME280;41562;44.330;23.802;2023-02-12T14:30:34;101778.00;;;4.91;75.48
55675;BME280;41562;44.330;23.802;2023-02-12T14:35:41;101785.75;;;4.93;75.09
55675;BME280;41562;44.330;23.802;2023-02-12T14:40:44;101779.09;;;4.75;75.73
55675;BME280;41562;44.330;23.802;2023-02-12T14:43:38;101782.03;;;4.80;75.39
55675;BME280;41562;44.330;23.802;2023-02-12T14:51:46;101785.41;;;4.68;76.49
55675;BME280;41562;44.330;23.802;2023-02-12T14:54:36;101785.78;;;4.65;77.10
55675;BME280;41562;44.330;23.802;2023-02-12T14:57:10;101794.91;;;4.62;77.87
55675;BME280;41562;44.330;23.802;2023-02-12T14:59:47;101795.91;;;4.55;78.36
55675;BME280;41562;44.330;23.802;2023-02-12T15:02:26;101793.97;;;4.42;78.51
55675;BME280;41562;44.330;23.802;2023-02-12T15:05:18;101797.13;;;4.31;78.51
55675;BME280;41562;44.330;23.802;2023-02-12T15:08:14;101801.59;;;4.30;78.80
55675;BME280;41562;44.330;23.802;2023-02-12T15:10:47;101811.41;;;4.36;79.20
55675;BME280;41562;44.330;23.802;2023-02-12T15:13:25;101823.66;;;4.37;78.69
55675;BME280;41562;44.330;23.802;2023-02-12T15:16:17;101816.63;;;4.23;79.45
55675;BME280;41562;44.330;23.802;2023-02-12T15:18:55;101832.94;;;4.27;78.44
55675;BME280;41562;44.330;23.802;2023-02-12T15:21:26;101835.22;;;4.09;79.06
55675;BME280;41562;44.330;23.802;2023-02-12T15:24:09;101844.47;;;3.98;80.55
55675;BME280;41562;44.330;23.802;2023-02-12T15:26:43;101847.22;;;4.11;79.63
55675;BME280;41562;44.330;23.802;2023-02-12T15:29:41;101849.03;;;4.04;79.75
55675;BME280;41562;44.330;23.802;2023-02-12T15:32:08;101846.38;;;4.04;79.93
55675;BME280;41562;44.330;23.802;2023-02-12T15:34:44;101863.63;;;4.00;79.99
55675;BME280;41562;44.330;23.802;2023-02-12T15:37:30;101874.06;;;3.87;80.64